Time;durP1;ratioP1;P1;durP2;ratioP2;P2;SDS_P1;SDS_P2;PMS_P1;PMS_P2;Temp;Humidity;BMP_temperature;BMP_pressure;BME280_temperature;BME280_humidity;BME280_pressure;Samples;Min_cycle;Max_cycle;Signal;HPM_P1;HPM_P2
2021/10/29 00:00:16;;;;;;;71.75;44.83;;;;;;;9.26;100.00;101878.94;1718386;83;21017;-85
2021/10/29 00:02:45;;;;;;;67.97;46.50;;;;;;;9.18;100.00;101890.17;1692594;83;21017;-85
2021/10/29 00:05:12;;;;;;;71.45;43.92;;;;;;;9.09;100.00;101889.70;1718659;83;22050;-86
2021/10/29 00:07:39;;;;;;;68.33;47.10;;;;;;;9.01;100.00;101894.45;1718476;83;21061;-84
2021/10/29 00:10:07;;;;;;;68.52;48.40;;;;;;;8.96;100.00;101897.71;1718425;83;21711;-84
2021/10/29 00:12:35;;;;;;;67.58;46.63;;;;;;;8.89;100.00;101895.02;1718367;83;21072;-86
2021/10/29 00:15:04;;;;;;;68.35;47.03;;;;;;;8.82;100.00;101894.46;1718339;83;21049;-86
2021/10/29 00:17:33;;;;;;;66.00;47.27;;;;;;;8.75;100.00;101891.33;1718610;83;21045;-85
2021/10/29 00:20:00;;;;;;;70.60;47.90;;;;;;;8.67;100.00;101894.75;1698224;83;21069;-85
2021/10/29 00:22:27;;;;;;;68.87;50.15;;;;;;;8.63;100.00;101894.48;1702138;83;21744;-85
2021/10/29 00:24:54;;;;;;;66.95;46.37;;;;;;;8.60;100.00;101896.77;1709225;83;21097;-85
2021/10/29 00:27:22;;;;;;;64.05;45.88;;;;;;;8.56;100.00;101892.65;1705191;83;21184;-85
2021/10/29 00:29:49;;;;;;;65.32;47.98;;;;;;;8.55;100.00;101894.00;1705390;84;21073;-87
2021/10/29 00:32:16;;;;;;;66.33;46.63;;;;;;;8.50;100.00;101892.47;1705357;83;21113;-85
2021/10/29 00:34:44;;;;;;;63.92;46.42;;;;;;;8.45;100.00;101892.26;1705116;83;21113;-85
2021/10/29 00:37:10;;;;;;;66.10;48.05;;;;;;;8.40;100.00;101893.77;1705007;84;21085;-86
2021/10/29 00:39:38;;;;;;;61.37;47.13;;;;;;;8.34;100.00;101891.45;1705315;83;21086;-86
2021/10/29 00:42:05;;;;;;;63.63;45.63;;;;;;;8.29;100.00;101891.66;1720358;83;21570;-86
2021/10/29 00:44:33;;;;;;;57.45;45.75;;;;;;;8.25;100.00;101889.27;1720685;83;21093;-86
2021/10/29 00:47:00;;;;;;;62.65;45.73;;;;;;;8.26;100.00;101893.55;1718247;83;21133;-85
2021/10/29 00:49:28;;;;;;;68.42;46.10;;;;;;;8.27;100.00;101887.45;1705475;83;21045;-85
2021/10/29 00:51:55;;;;;;;85.05;47.15;;;;;;;8.29;100.00;101886.94;1705520;83;21081;-85
2021/10/29 00:54:22;;;;;;;65.95;44.80;;;;;;;8.30;100.00;101889.89;1705910;83;21089;-86
2021/10/29 00:56:50;;;;;;;65.85;44.75;;;;;;;8.29;100.00;101889.53;1705722;83;21014;-86
2021/10/29 00:59:19;;;;;;;60.65;42.03;;;;;;;8.31;100.00;101887.69;1706858;83;21298;-86
2021/10/29 01:01:48;;;;;;;67.42;43.45;;;;;;;8.28;100.00;101889.97;1705991;83;21046;-85
2021/10/29 01:04:17;;;;;;;64.17;44.73;;;;;;;8.26;100.00;101889.66;1705645;83;21014;-86
2021/10/29 01:06:45;;;;;;;63.08;45.58;;;;;;;8.24;100.00;101887.14;1705524;83;21062;-85
2021/10/29 01:09:14;;;;;;;58.70;44.85;;;;;;;8.18;100.00;101889.55;1705404;83;21951;-85
2021/10/29 01:11:42;;;;;;;61.58;44.88;;;;;;;8.00;100.00;101889.92;1706195;83;21114;-85
2021/10/29 01:14:10;;;;;;;58.60;43.90;;;;;;;7.78;100.00;101898.22;1684651;84;21049;-84
2021/10/29 01:16:37;;;;;;;59.65;43.48;;;;;;;7.54;100.00;101901.80;1705995;83;21093;-85
2021/10/29 01:19:05;;;;;;;68.07;44.53;;;;;;;7.30;100.00;101904.94;1705564;83;21065;-86
2021/10/29 01:21:33;;;;;;;56.88;43.78;;;;;;;7.14;100.00;101902.57;1706563;83;21417;-85
2021/10/29 01:24:00;;;;;;;69.60;43.08;;;;;;;7.03;100.00;101912.06;1712716;82;21986;-85
2021/10/29 01:26:27;;;;;;;54.18;41.60;;;;;;;7.03;100.00;101909.48;1691078;83;21570;-85
2021/10/29 01:28:55;;;;;;;61.75;43.00;;;;;;;7.07;100.00;101910.59;1713264;82;21053;-85
2021/10/29 01:31:22;;;;;;;61.28;44.60;;;;;;;7.12;100.00;101916.06;1691139;83;21069;-86
2021/10/29 01:33:50;;;;;;;57.73;44.45;;;;;;;7.19;100.00;101914.44;1713360;82;21484;-86
2021/10/29 01:36:17;;;;;;;62.83;44.77;;;;;;;7.26;100.00;101921.06;1713112;82;21133;-85
2021/10/29 01:38:45;;;;;;;72.87;44.45;;;;;;;7.33;100.00;101914.36;1713302;83;21799;-86
2021/10/29 01:41:12;;;;;;;64.97;43.00;;;;;;;7.40;100.00;101917.91;1713380;82;21093;-85
2021/10/29 01:43:47;;;;;;;70.08;44.42;;;;;;;7.48;100.00;101918.91;1713160;83;21097;-86
2021/10/29 01:46:16;;;;;;;86.08;44.77;;;;;;;7.56;100.00;101925.92;1713257;83;21049;-85
2021/10/29 01:48:50;;;;;;;110.55;47.33;;;;;;;7.64;100.00;101924.75;1691378;83;21328;-85
2021/10/29 01:51:17;;;;;;;111.72;46.75;;;;;;;7.70;100.00;101930.50;1713248;82;21061;-85
2021/10/29 01:53:45;;;;;;;80.30;43.05;;;;;;;7.78;100.00;101931.92;1713146;82;21084;-85
2021/10/29 01:56:12;;;;;;;71.55;43.50;;;;;;;7.81;100.00;101924.86;1713315;83;21062;-85
2021/10/29 01:58:40;;;;;;;62.78;43.58;;;;;;;7.83;100.00;101928.23;1713301;83;20998;-86
2021/10/29 02:01:07;;;;;;;60.35;42.10;;;;;;;7.83;100.00;101934.72;1713398;83;21133;-86
2021/10/29 02:03:34;;;;;;;66.75;41.50;;;;;;;7.85;100.00;101935.50;1676935;83;21052;-86
2021/10/29 02:06:02;;;;;;;60.05;42.50;;;;;;;7.88;100.00;101937.12;1713294;83;21054;-85
2021/10/29 02:08:29;;;;;;;55.55;41.37;;;;;;;7.92;100.00;101941.28;1691462;83;21033;-86
2021/10/29 02:10:56;;;;;;;57.17;41.70;;;;;;;7.89;100.00;101946.13;1692833;83;21152;-85
2021/10/29 02:13:25;;;;;;;56.30;41.73;;;;;;;7.83;100.00;101954.17;1713286;83;21042;-86
2021/10/29 02:15:53;;;;;;;59.30;42.10;;;;;;;7.76;100.00;101952.74;1713222;82;21084;-86
2021/10/29 02:18:20;;;;;;;57.83;42.93;;;;;;;7.74;100.00;101958.00;1713327;83;21188;-86
2021/10/29 02:20:47;;;;;;;67.15;44.42;;;;;;;7.77;100.00;101962.22;1713306;83;21524;-85
2021/10/29 02:23:15;;;;;;;63.65;46.15;;;;;;;7.81;100.00;101965.05;1716208;83;21013;-86
2021/10/29 02:25:46;;;;;;;62.25;46.85;;;;;;;7.88;100.00;101963.91;1711333;83;21816;-85
2021/10/29 02:28:17;;;;;;;79.32;46.00;;;;;;;7.90;100.00;101965.97;1717254;83;21139;-85
2021/10/29 02:30:45;;;;;;;65.52;48.23;;;;;;;7.90;100.00;101969.86;1718532;81;21112;-84
2021/10/29 02:33:16;;;;;;;64.37;46.50;;;;;;;7.87;100.00;101973.90;1698210;83;21100;-85
2021/10/29 02:35:46;;;;;;;64.47;47.17;;;;;;;7.80;100.00;101973.77;1718776;83;21139;-85
2021/10/29 02:38:14;;;;;;;71.47;49.10;;;;;;;7.77;100.00;101976.95;1719230;82;21819;-85
2021/10/29 02:40:42;;;;;;;68.33;48.38;;;;;;;7.76;100.00;101975.25;1697706;83;21076;-86
2021/10/29 02:43:09;;;;;;;58.68;44.53;;;;;;;7.74;100.00;101980.05;1718563;83;21115;-85
2021/10/29 02:45:37;;;;;;;67.08;49.10;;;;;;;7.74;100.00;101980.05;1718279;83;21876;-85
2021/10/29 02:48:05;;;;;;;67.40;49.33;;;;;;;7.77;100.00;101983.42;1718430;82;21096;-86
2021/10/29 02:50:33;;;;;;;66.05;47.83;;;;;;;7.81;100.00;101987.56;1658364;85;21091;-86
2021/10/29 02:53:03;;;;;;;66.22;47.98;;;;;;;7.83;100.00;101989.65;1678728;84;21081;-86
2021/10/29 02:55:30;;;;;;;55.25;43.23;;;;;;;7.84;100.00;101992.17;1677869;85;21049;-85
2021/10/29 02:57:58;;;;;;;60.03;43.23;;;;;;;7.84;100.00;101992.17;1678258;85;21102;-85
2021/10/29 03:00:25;;;;;;;58.80;44.00;;;;;;;7.88;100.00;101991.15;1677940;84;21475;-85
2021/10/29 03:02:52;;;;;;;58.73;42.05;;;;;;;7.89;100.00;101985.03;1677713;84;21824;-85
2021/10/29 03:05:20;;;;;;;58.10;43.65;;;;;;;7.92;100.00;101988.41;1677881;84;21011;-85
2021/10/29 03:07:47;;;;;;;52.55;40.28;;;;;;;7.96;100.00;101987.39;1678052;84;21006;-86
2021/10/29 03:10:14;;;;;;;51.13;39.80;;;;;;;7.97;100.00;101989.91;1677968;85;21215;-84
2021/10/29 03:12:41;;;;;;;51.92;39.10;;;;;;;8.00;100.00;101994.12;1677854;84;21134;-85
2021/10/29 03:15:11;;;;;;;49.85;38.53;;;;;;;8.05;100.00;101989.59;1677326;84;21165;-85
2021/10/29 03:17:39;;;;;;;47.23;35.30;;;;;;;8.10;100.00;102002.34;1677816;85;21038;-85
2021/10/29 03:20:08;;;;;;;46.83;36.70;;;;;;;8.14;100.00;102009.94;1656884;84;21125;-86
2021/10/29 03:22:37;;;;;;;48.17;35.10;;;;;;;8.16;100.00;102005.53;1658519;84;21176;-85
2021/10/29 03:25:06;;;;;;;48.55;34.38;;;;;;;8.21;100.00;102010.06;1678200;85;21141;-89
2021/10/29 03:27:34;;;;;;;190.15;40.78;;;;;;;8.29;100.00;102007.62;1653654;85;21081;-90
2021/10/29 03:30:01;;;;;;;69.53;34.78;;;;;;;8.45;100.00;102003.41;1678838;85;21523;-92
2021/10/29 03:32:28;;;;;;;68.20;36.35;;;;;;;8.61;100.00;102002.33;1678274;84;21045;-93
2021/10/29 03:34:58;;;;;;;181.43;42.43;;;;;;;8.83;100.00;102007.84;1678505;84;21104;-84
2021/10/29 03:40:00;;;;;;;52.55;31.77;;;;;;;9.19;100.00;102007.50;1689098;84;21779;-84
2021/10/29 03:42:31;;;;;;;44.88;30.92;;;;;;;9.25;100.00;102017.64;1715057;83;21044;-83
2021/10/29 03:47:19;;;;;;;47.67;32.05;;;;;;;9.41;100.00;102018.59;1717857;83;21105;-84
2021/10/29 03:49:51;;;;;;;81.20;32.40;;;;;;;9.50;100.00;102022.94;1718286;81;21083;-80
2021/10/29 03:52:29;;;;;;;46.35;30.92;;;;;;;9.57;100.00;102018.69;1718002;83;21218;-82
2021/10/29 03:54:58;;;;;;;62.55;31.95;;;;;;;9.63;100.00;102013.17;1715098;83;21544;-82
2021/10/29 03:57:25;;;;;;;42.58;30.30;;;;;;;9.61;100.00;102011.57;1718022;83;21120;-82
2021/10/29 03:59:55;;;;;;;52.60;31.00;;;;;;;9.54;100.00;102012.31;1718326;83;21109;-81
2021/10/29 04:02:23;;;;;;;39.13;31.40;;;;;;;9.46;100.00;102017.91;1683357;83;21098;-82
2021/10/29 04:04:51;;;;;;;44.08;31.17;;;;;;;9.39;100.00;102019.56;1688815;83;21973;-81
2021/10/29 04:07:19;;;;;;;45.30;30.85;;;;;;;9.31;100.00;102022.54;1717966;83;21595;-82
2021/10/29 04:09:46;;;;;;;41.40;30.48;;;;;;;9.23;100.00;102021.59;1718235;82;21638;-81
2021/10/29 04:12:14;;;;;;;43.60;29.70;;;;;;;9.21;100.00;102027.34;1718182;83;21527;-81
2021/10/29 04:14:43;;;;;;;39.18;29.80;;;;;;;9.13;100.00;102030.28;1718159;83;21025;-82
2021/10/29 04:17:10;;;;;;;40.70;29.45;;;;;;;9.06;100.00;102031.92;1718734;82;21145;-82
2021/10/29 04:19:37;;;;;;;44.00;31.62;;;;;;;9.03;100.00;102040.70;1718049;83;20998;-83
2021/10/29 04:22:04;;;;;;;44.85;32.20;;;;;;;8.99;100.00;102041.30;1718246;82;21542;-82
2021/10/29 04:24:31;;;;;;;39.10;30.52;;;;;;;8.95;100.00;102046.70;1683266;84;21053;-81
2021/10/29 04:27:00;;;;;;;46.92;30.57;;;;;;;8.88;100.00;102053.09;1692776;83;21007;-82
2021/10/29 04:29:35;;;;;;;42.50;30.55;;;;;;;8.86;100.00;102060.10;1697662;83;21191;-81
2021/10/29 04:31:57;;;;;;;38.15;30.27;;;;;;;8.86;100.00;102064.00;1696858;83;21014;-82
2021/10/29 04:34:26;;;;;;;39.42;30.23;;;;;;;8.86;100.00;102066.59;1699438;84;21101;-81
2021/10/29 04:36:57;;;;;;;41.80;32.10;;;;;;;8.83;100.00;102072.34;1699672;83;21053;-82
2021/10/29 04:39:26;;;;;;;44.40;32.48;;;;;;;8.82;100.00;102077.14;1700283;83;21676;-81
2021/10/29 04:41:53;;;;;;;41.08;30.10;;;;;;;8.82;100.00;102079.73;1699681;83;21290;-82
2021/10/29 04:44:23;;;;;;;43.73;29.85;;;;;;;8.79;100.00;102087.66;1699586;83;21508;-82
2021/10/29 04:46:52;;;;;;;36.75;29.87;;;;;;;8.80;100.00;102101.50;1699575;84;21133;-83
2021/10/29 04:49:19;;;;;;;40.12;30.30;;;;;;;8.83;100.00;102098.31;1699036;83;21022;-82
2021/10/29 04:51:48;;;;;;;37.48;29.98;;;;;;;8.90;100.00;102092.38;1699134;83;21539;-82
2021/10/29 04:54:15;;;;;;;43.00;29.77;;;;;;;8.94;100.00;102099.57;1709761;82;22440;-83
2021/10/29 04:56:43;;;;;;;36.68;28.05;;;;;;;8.95;100.00;102093.47;1713806;82;21037;-83
2021/10/29 04:59:13;;;;;;;37.90;28.87;;;;;;;8.99;100.00;102098.46;1713839;82;20994;-83
2021/10/29 05:01:40;;;;;;;35.08;28.38;;;;;;;9.03;100.00;102107.43;1663806;84;21033;-83
2021/10/29 05:04:07;;;;;;;37.30;28.77;;;;;;;9.04;100.00;102110.42;1706885;84;21772;-83
2021/10/29 05:06:34;;;;;;;41.40;28.60;;;;;;;9.01;100.00;102115.30;1707252;84;21117;-84
2021/10/29 05:09:01;;;;;;;35.78;28.27;;;;;;;9.02;100.00;102113.53;1706990;82;21060;-82
2021/10/29 05:11:28;;;;;;;36.70;28.02;;;;;;;9.04;100.00;102118.22;1706960;82;21112;-82
2021/10/29 05:13:57;;;;;;;36.95;28.42;;;;;;;9.03;100.00;102112.16;1706983;84;21507;-82
2021/10/29 05:16:24;;;;;;;36.35;27.77;;;;;;;8.99;100.00;102117.13;1707193;82;21712;-83
2021/10/29 05:18:51;;;;;;;36.23;25.27;;;;;;;8.95;100.00;102119.02;1703054;84;21134;-83
2021/10/29 05:21:18;;;;;;;38.20;27.35;;;;;;;8.94;100.00;102119.92;1695885;83;21046;-83
2021/10/29 05:23:45;;;;;;;41.77;26.15;;;;;;;8.93;100.00;102129.09;1700431;83;21077;-83
2021/10/29 05:26:13;;;;;;;35.10;26.50;;;;;;;8.94;100.00;102131.61;1702890;83;21124;-82
2021/10/29 05:28:40;;;;;;;30.15;24.18;;;;;;;8.95;100.00;102133.73;1704960;83;21010;-82
2021/10/29 05:31:08;;;;;;;35.65;28.17;;;;;;;8.98;100.00;102143.54;1706237;83;21885;-83
2021/10/29 05:33:35;;;;;;;38.48;28.77;;;;;;;8.98;100.00;102139.64;1699197;81;21606;-82
2021/10/29 05:36:02;;;;;;;49.27;35.40;;;;;;;8.99;100.00;102148.30;1692647;83;21009;-81
2021/10/29 05:38:29;;;;;;;45.55;35.75;;;;;;;8.97;100.00;102147.52;1699157;83;21055;-83
2021/10/29 05:40:58;;;;;;;44.58;34.15;;;;;;;8.97;100.00;102142.31;1703872;83;21594;-82
2021/10/29 05:43:25;;;;;;;37.73;29.40;;;;;;;9.02;100.00;102155.11;1709340;83;21082;-82
2021/10/29 05:45:52;;;;;;;39.27;29.18;;;;;;;9.04;100.00;102155.42;1703780;81;21095;-83
2021/10/29 05:48:19;;;;;;;50.33;38.88;;;;;;;9.07;100.00;102166.99;1695635;83;21081;-83
2021/10/29 05:50:50;;;;;;;43.58;32.25;;;;;;;9.09;100.00;102166.45;1701852;83;21072;-83
2021/10/29 05:53:34;;;;;;;41.77;31.77;;;;;;;9.11;100.00;102171.12;1712627;82;21113;-82
2021/10/29 05:55:50;;;;;;;39.78;29.92;;;;;;;9.15;100.00;102177.03;1702907;83;21156;-82
2021/10/29 05:58:16;;;;;;;33.40;27.75;;;;;;;9.14;100.00;102178.80;1707150;83;21080;-81
2021/10/29 06:00:44;;;;;;;35.43;28.65;;;;;;;9.13;100.00;102181.48;1705266;83;21046;-82
2021/10/29 06:03:13;;;;;;;38.98;29.35;;;;;;;9.10;100.00;102182.91;1704979;83;37798;-82
2021/10/29 06:05:40;;;;;;;35.43;27.73;;;;;;;9.07;100.00;102185.19;1705183;83;21033;-82
2021/10/29 06:08:08;;;;;;;46.63;26.48;;;;;;;9.06;100.00;102187.83;1705085;83;21105;-82
2021/10/29 06:10:35;;;;;;;37.53;26.70;;;;;;;9.06;100.00;102187.83;1683573;84;21050;-82
2021/10/29 06:13:02;;;;;;;31.37;24.67;;;;;;;9.07;100.00;102194.28;1678867;84;21121;-82
2021/10/29 06:15:30;;;;;;;35.48;27.15;;;;;;;9.06;100.00;102193.89;1671329;83;21083;-82
2021/10/29 06:17:57;;;;;;;33.33;25.70;;;;;;;8.99;100.00;102198.96;1698779;84;21008;-82
2021/10/29 06:20:26;;;;;;;32.78;25.70;;;;;;;8.97;100.00;102196.88;1680086;84;21152;-82
2021/10/29 06:22:55;;;;;;;34.85;26.10;;;;;;;8.96;100.00;102197.78;1705393;83;21118;-83
2021/10/29 06:25:26;;;;;;;30.60;24.95;;;;;;;8.96;100.00;102206.44;1705202;83;21062;-82
2021/10/29 06:30:44;;;;;;;31.40;26.48;;;;;;;9.00;100.00;102207.98;1644395;85;21080;-82
2021/10/29 06:33:14;;;;;;;35.98;27.13;;;;;;;9.05;100.00;102214.75;1713191;83;21202;-82
2021/10/29 06:35:42;;;;;;;37.95;27.50;;;;;;;9.09;100.00;102215.82;1706857;83;21099;-82
2021/10/29 06:38:11;;;;;;;34.92;26.95;;;;;;;9.13;100.00;102213.97;1705431;84;21079;-82
2021/10/29 06:40:44;;;;;;;33.53;26.15;;;;;;;9.14;100.00;102216.48;1705518;84;21084;-81
2021/10/29 06:43:19;;;;;;;37.42;27.30;;;;;;;9.17;100.00;102216.80;1705488;84;21114;-83
2021/10/29 06:48:34;;;;;;;36.88;27.73;;;;;;;9.20;100.00;102227.52;1680348;84;21560;-82
2021/10/29 06:59:28;;;;;;;38.88;25.88;;;;;;;9.15;100.00;102238.11;1705500;84;21161;-82
2021/10/29 07:40:03;;;;;;;56.65;26.12;;;;;;;9.60;100.00;102248.72;1710209;83;21164;-82
2021/10/29 07:42:38;;;;;;;37.70;26.68;;;;;;;9.67;100.00;102250.56;1708676;83;21126;-83
2021/10/29 07:45:03;;;;;;;35.13;25.60;;;;;;;9.71;100.00;102240.42;1705338;83;21039;-82
2021/10/29 07:47:31;;;;;;;37.63;24.82;;;;;;;9.76;100.00;102244.95;1677065;83;21036;-82
2021/10/29 07:49:58;;;;;;;35.95;26.23;;;;;;;9.84;100.00;102239.41;1710253;83;21573;-82
2021/10/29 07:52:25;;;;;;;37.25;24.37;;;;;;;9.90;100.00;102246.92;1677223;83;21133;-82
2021/10/29 07:54:52;;;;;;;37.03;26.70;;;;;;;9.88;100.00;102243.53;1710019;83;20975;-81
2021/10/29 07:57:19;;;;;;;39.48;26.23;;;;;;;9.89;100.00;102243.09;1709987;83;21525;-82
2021/10/29 07:59:50;;;;;;;35.48;25.65;;;;;;;9.90;100.00;102248.66;1710254;83;21067;-81
2021/10/29 08:02:17;;;;;;;33.28;26.57;;;;;;;9.92;100.00;102248.14;1710425;83;21078;-82
2021/10/29 08:04:48;;;;;;;36.13;25.52;;;;;;;9.94;100.00;102251.05;1710221;83;21941;-83
2021/10/29 08:07:15;;;;;;;89.40;59.88;;;;;;;9.95;100.00;102246.23;1710291;82;21042;-82
2021/10/29 08:09:45;;;;;;;46.90;37.28;;;;;;;9.99;100.00;102259.95;1710449;83;21059;-82
2021/10/29 08:12:19;;;;;;;38.95;30.77;;;;;;;9.98;100.00;102256.95;1710638;83;21046;-82
2021/10/29 08:14:52;;;;;;;34.08;26.70;;;;;;;10.00;100.00;102262.11;1710361;83;21591;-82
2021/10/29 08:17:20;;;;;;;39.30;27.22;;;;;;;9.98;100.00;102262.16;1678524;83;21136;-82
2021/10/29 08:19:47;;;;;;;34.33;25.75;;;;;;;10.00;100.00;102265.55;1677219;83;21094;-83
2021/10/29 08:22:15;;;;;;;35.30;26.52;;;;;;;10.01;100.00;102273.74;1710124;83;21579;-83
2021/10/29 08:24:44;;;;;;;35.92;27.62;;;;;;;10.01;100.00;102269.01;1709198;83;21111;-82
2021/10/29 08:27:11;;;;;;;35.30;25.85;;;;;;;9.98;100.00;102266.53;1705465;83;21091;-82
2021/10/29 08:29:39;;;;;;;36.35;26.93;;;;;;;9.91;100.00;102265.97;1705516;83;21144;-83
2021/10/29 08:32:07;;;;;;;44.42;27.27;;;;;;;9.84;100.00;102268.46;1705395;83;22001;-83
2021/10/29 08:34:34;;;;;;;32.73;25.15;;;;;;;9.79;100.00;102271.27;1706447;83;21055;-82
2021/10/29 08:37:05;;;;;;;36.40;23.83;;;;;;;9.82;100.00;102267.68;1705158;83;21102;-83
2021/10/29 08:39:34;;;;;;;37.13;24.77;;;;;;;9.87;100.00;102267.03;1705562;83;21067;-83
2021/10/29 08:42:02;;;;;;;34.20;23.10;;;;;;;9.92;100.00;102272.42;1705193;83;21162;-82
2021/10/29 08:44:31;;;;;;;29.48;22.50;;;;;;;9.95;100.00;102270.13;1705370;83;21078;-82
2021/10/29 08:47:01;;;;;;;31.85;22.40;;;;;;;9.98;100.00;102274.34;1679814;84;21079;-83
2021/10/29 08:49:31;;;;;;;35.58;24.70;;;;;;;10.01;100.00;102276.81;1684961;84;21012;-82
2021/10/29 08:52:01;;;;;;;33.50;25.48;;;;;;;10.05;100.00;102281.81;1705745;83;21656;-82
2021/10/29 08:54:30;;;;;;;42.80;25.92;;;;;;;10.13;100.00;102280.14;1705395;83;21063;-82
2021/10/29 08:56:59;;;;;;;29.60;22.98;;;;;;;10.19;100.00;102286.82;1704895;83;21074;-83
2021/10/29 08:59:32;;;;;;;33.08;22.32;;;;;;;10.24;100.00;102287.44;1705504;83;21095;-83
2021/10/29 09:05:04;;;;;;;30.25;21.62;;;;;;;10.37;100.00;102287.30;1681015;84;21630;-82
2021/10/29 09:07:40;;;;;;;32.50;22.77;;;;;;;10.46;100.00;102287.74;1673535;84;22063;-82
2021/10/29 09:10:29;;;;;;;30.80;21.87;;;;;;;10.50;100.00;102282.78;1704679;83;21000;-82
2021/10/29 09:33:01;;;;;;;37.67;23.75;;;;;;;11.25;100.00;102267.78;1713481;82;21071;-83
2021/10/29 09:35:35;;;;;;;29.05;21.70;;;;;;;11.34;100.00;102267.28;1711035;83;21557;-83
2021/10/29 09:38:06;;;;;;;31.10;22.37;;;;;;;11.47;100.00;102267.48;1696104;83;21044;-83
2021/10/29 09:41:03;;;;;;;28.32;20.97;;;;;;;11.56;100.00;102261.39;1690649;84;21066;-82
2021/10/29 09:43:44;;;;;;;26.52;21.70;;;;;;;11.64;100.00;102267.05;1689640;84;21091;-84
2021/10/29 09:46:12;;;;;;;30.55;20.80;;;;;;;11.60;100.00;102263.77;1674699;84;21039;-82
2021/10/29 09:48:45;;;;;;;23.27;18.23;;;;;;;11.59;100.00;102263.38;1691203;84;21133;-83
2021/10/29 09:51:14;;;;;;;21.45;18.95;;;;;;;11.64;100.00;102266.60;1691431;83;21090;-83
2021/10/29 09:59:01;;;;;;;25.80;19.70;;;;;;;11.85;100.00;102259.83;1711839;83;21659;-82
2021/10/29 10:01:29;;;;;;;24.37;18.65;;;;;;;11.96;100.00;102261.85;1688072;84;21165;-83
2021/10/29 10:04:03;;;;;;;24.47;19.42;;;;;;;12.08;100.00;102268.20;1656868;85;21054;-83
2021/10/29 10:06:33;;;;;;;23.98;19.23;;;;;;;12.23;100.00;102266.52;1692634;84;21098;-83
2021/10/29 10:09:03;;;;;;;24.92;19.42;;;;;;;12.42;100.00;102267.15;1692305;84;21783;-83
2021/10/29 10:11:31;;;;;;;24.85;19.45;;;;;;;12.59;100.00;102258.37;1640595;87;21081;-83
2021/10/29 10:13:59;;;;;;;27.37;19.57;;;;;;;12.68;100.00;102259.59;1650444;86;22035;-83
2021/10/29 10:16:29;;;;;;;27.62;19.85;;;;;;;12.71;100.00;102259.42;1629067;86;21046;-83
2021/10/29 10:18:57;;;;;;;33.30;19.98;;;;;;;12.75;100.00;102260.09;1696227;83;21799;-84
2021/10/29 10:21:26;;;;;;;26.75;20.00;;;;;;;12.81;100.00;102257.59;1686537;83;21041;-82
2021/10/29 10:23:59;;;;;;;28.80;21.27;;;;;;;12.84;100.00;102260.86;1712778;83;21551;-82
2021/10/29 10:40:29;;;;;;;27.48;19.95;;;;;;;11.99;100.00;102257.81;1675489;84;21175;-83
2021/10/29 10:43:17;;;;;;;27.05;19.35;;;;;;;11.95;100.00;102253.64;1684494;83;21080;-84
2021/10/29 10:48:16;;;;;;;25.95;18.82;;;;;;;11.89;100.00;102248.31;1658278;84;21593;-84
2021/10/29 10:50:46;;;;;;;24.75;20.88;;;;;;;11.89;100.00;102248.31;1662881;85;21077;-83
2021/10/29 10:53:31;;;;;;;24.32;19.00;;;;;;;11.87;100.00;102254.08;1620493;85;21061;-85
2021/10/29 10:59:07;;;;;;;24.65;19.48;;;;;;;11.91;100.00;102249.53;1689615;83;21960;-83
2021/10/29 11:04:34;;;;;;;24.55;19.95;;;;;;;11.90;100.00;102243.45;1587043;89;22116;-83
2021/10/29 11:07:07;;;;;;;23.02;19.10;;;;;;;11.86;100.00;102247.17;1662029;83;21089;-83
2021/10/29 11:10:11;;;;;;;23.65;19.65;;;;;;;11.81;100.00;102242.67;1683244;83;21457;-83
2021/10/29 11:12:47;;;;;;;25.97;20.80;;;;;;;11.79;100.00;102244.52;1683178;84;21085;-83
2021/10/29 11:15:27;;;;;;;22.58;18.65;;;;;;;11.75;100.00;102252.11;1690506;84;21070;-83
2021/10/29 11:18:20;;;;;;;23.77;20.25;;;;;;;11.73;100.00;102252.69;1699644;83;21098;-83
2021/10/29 11:20:51;;;;;;;24.50;20.43;;;;;;;11.67;100.00;102249.46;1694270;83;21153;-83
2021/10/29 11:23:26;;;;;;;25.20;20.70;;;;;;;11.64;100.00;102240.52;1691859;84;21512;-83
2021/10/29 11:26:04;;;;;;;28.38;22.27;;;;;;;11.61;100.00;102241.14;1710717;83;21093;-82
2021/10/29 11:28:43;;;;;;;30.00;23.57;;;;;;;11.56;100.00;102244.44;1697650;84;21043;-84
2021/10/29 11:31:14;;;;;;;29.80;23.05;;;;;;;11.51;100.00;102242.07;1683350;83;20969;-83
2021/10/29 11:33:49;;;;;;;29.55;23.70;;;;;;;11.49;100.00;102254.38;1683215;83;21163;-85
2021/10/29 11:36:24;;;;;;;34.10;26.05;;;;;;;11.48;100.00;102254.82;1662950;85;21115;-83
2021/10/29 11:38:52;;;;;;;35.08;26.10;;;;;;;11.50;100.00;102256.03;1683178;83;21577;-83
2021/10/29 11:41:23;;;;;;;30.80;25.37;;;;;;;11.51;100.00;102261.64;1686612;83;21017;-83
2021/10/29 11:43:54;;;;;;;35.25;27.07;;;;;;;11.51;100.00;102259.03;1683234;83;21049;-83
2021/10/29 11:46:23;;;;;;;33.53;25.77;;;;;;;11.54;100.00;102258.88;1690371;83;21141;-83
2021/10/29 11:48:59;;;;;;;34.48;26.82;;;;;;;11.58;100.00;102248.64;1669049;83;21074;-83
2021/10/29 11:51:27;;;;;;;29.15;24.98;;;;;;;11.60;100.00;102253.80;1699393;84;20987;-83
2021/10/29 12:07:53;;;;;;;30.27;25.25;;;;;;;11.84;100.00;102256.84;1638466;87;21496;-84
2021/10/29 12:10:22;;;;;;;28.47;23.67;;;;;;;11.86;100.00;102260.22;1638907;87;21567;-84
2021/10/29 12:12:54;;;;;;;34.50;25.37;;;;;;;11.87;100.00;102262.35;1639396;85;21153;-84
2021/10/29 12:15:25;;;;;;;34.33;25.50;;;;;;;11.86;100.00;102258.91;1638693;86;21607;-84
2021/10/29 12:18:03;;;;;;;33.45;25.77;;;;;;;11.87;100.00;102259.30;1649196;86;21081;-84
2021/10/29 12:20:40;;;;;;;31.82;25.20;;;;;;;11.89;100.00;102255.28;1679630;84;21072;-84
2021/10/29 12:23:26;;;;;;;29.20;23.75;;;;;;;11.89;100.00;102257.45;1680638;84;21989;-84
2021/10/29 12:25:58;;;;;;;32.83;24.15;;;;;;;11.89;100.00;102254.84;1682515;83;21808;-84
2021/10/29 12:28:37;;;;;;;29.90;22.87;;;;;;;11.89;100.00;102261.38;1661580;83;21433;-84
2021/10/29 13:01:31;;;;;;;24.87;19.75;;;;;;;11.61;100.00;102285.02;1626983;86;21105;-84
2021/10/29 13:04:07;;;;;;;26.05;20.70;;;;;;;11.59;100.00;102284.25;1622155;86;21547;-82
2021/10/29 13:06:47;;;;;;;26.70;20.52;;;;;;;11.57;100.00;102277.43;1616303;87;21173;-85
2021/10/29 13:09:28;;;;;;;30.57;20.05;;;;;;;11.55;100.00;102282.74;1648504;84;21046;-86
2021/10/29 13:12:09;;;;;;;45.12;22.02;;;;;;;11.53;100.00;102283.28;1660813;83;21016;-90
2021/10/29 13:14:37;;;;;;;29.23;20.77;;;;;;;11.52;100.00;102281.59;1686136;83;21597;-88
2021/10/29 13:17:07;;;;;;;35.50;21.20;;;;;;;11.52;100.00;102281.14;1662327;84;21087;-82
2021/10/29 13:19:50;;;;;;;54.45;22.22;;;;;;;11.51;100.00;102281.20;1635935;85;21220;-83
2021/10/29 13:55:15;;;;;;;35.25;23.20;;;;;;;11.07;100.00;102276.06;1712791;83;21077;-83
2021/10/29 14:32:26;;;;;;;37.80;25.27;;;;;;;10.81;100.00;102282.14;1621748;83;21075;-84
2021/10/29 14:34:51;;;;;;;74.27;28.15;;;;;;;10.77;100.00;102280.59;1664475;83;21057;-84
2021/10/29 14:37:27;;;;;;;43.55;25.15;;;;;;;10.71;100.00;102278.30;1672089;83;21036;-82
2021/10/29 14:39:55;;;;;;;57.88;26.37;;;;;;;10.67;100.00;102277.61;1668958;84;21162;-84
2021/10/29 14:42:30;;;;;;;42.27;24.70;;;;;;;10.63;100.00;102276.05;1666558;84;21150;-84
2021/10/29 14:47:31;;;;;;;78.30;26.20;;;;;;;10.52;100.00;102279.19;1631708;86;21665;-84
2021/10/29 14:50:11;;;;;;;54.80;25.05;;;;;;;10.49;100.00;102281.09;1634241;85;21060;-84
2021/10/29 14:52:56;;;;;;;51.05;24.35;;;;;;;10.44;100.00;102281.31;1632266;85;21890;-83
2021/10/29 15:01:08;;;;;;;173.50;31.05;;;;;;;10.38;100.00;102286.35;1631509;86;21700;-85
2021/10/29 15:17:31;;;;;;;65.42;33.50;;;;;;;10.28;100.00;102299.41;1628550;86;21611;-83
2021/10/29 15:30:01;;;;;;;84.10;46.15;;;;;;;10.04;100.00;102316.55;1663801;84;21057;-84